createdAt,value
2022-09-12T00:00:44.592Z,101516.03
2022-09-12T00:03:16.977Z,101520.53
2022-09-12T00:05:49.329Z,101510.84
2022-09-12T00:08:21.727Z,101509.09
2022-09-12T00:10:54.126Z,101509.97
2022-09-12T00:13:26.737Z,101510.88
2022-09-12T00:15:59.116Z,101501.22
2022-09-12T00:18:32.524Z,101503.00
2022-09-12T00:21:05.227Z,101494.19
2022-09-12T00:23:37.724Z,101497.78
2022-09-12T00:26:10.304Z,101493.38
2022-09-12T00:28:42.884Z,101498.75
2022-09-12T00:31:18.717Z,101494.38
2022-09-12T00:33:52.561Z,101489.09
2022-09-12T00:36:26.392Z,101490.81
2022-09-12T00:38:59.137Z,101489.03
2022-09-12T00:41:35.012Z,101483.78
2022-09-12T00:44:10.452Z,101487.28
2022-09-12T00:46:52.879Z,101477.63
2022-09-12T00:49:47.594Z,101479.41
2022-09-12T00:52:26.404Z,101481.25
2022-09-12T00:55:12.956Z,101487.47
2022-09-12T00:58:12.628Z,101480.47
2022-09-12T01:00:47.114Z,101470.78
2022-09-12T01:03:22.308Z,101470.78
2022-09-12T01:06:07.257Z,101470.78
2022-09-12T01:08:41.156Z,101463.75
2022-09-12T01:11:15.593Z,101465.47
2022-09-12T01:13:49.622Z,101457.50
2022-09-12T01:16:22.183Z,101447.84
2022-09-12T01:19:06.623Z,101454.00
2022-09-12T01:21:48.645Z,101457.50
2022-09-12T01:24:46.854Z,101457.50
2022-09-12T01:27:31.616Z,101453.09
2022-09-12T01:30:04.508Z,101446.84
2022-09-12T01:32:55.299Z,101446.84
2022-09-12T01:35:43.013Z,101441.56
2022-09-12T01:38:21.073Z,101452.16
2022-09-12T01:40:59.480Z,101445.09
2022-09-12T01:43:38.085Z,101443.25
2022-09-12T01:46:19.329Z,101447.75
2022-09-12T01:49:12.300Z,101447.78
2022-09-12T01:51:55.276Z,101440.72
2022-09-12T01:54:36.353Z,101438.16
2022-09-12T01:57:21.209Z,101443.50
2022-09-12T01:59:59.087Z,101425.88
2022-09-12T02:02:38.308Z,101423.22
2022-09-12T02:05:20.161Z,101416.19
2022-09-12T02:08:03.877Z,101410.13
2022-09-12T02:10:51.441Z,101408.38
2022-09-12T02:13:34.524Z,101409.28
2022-09-12T02:16:23.638Z,101407.53
2022-09-12T02:19:03.390Z,101412.84
2022-09-12T02:21:39.525Z,101419.06
2022-09-12T02:24:15.151Z,101407.53
2022-09-12T02:27:03.260Z,101412.00
2022-09-12T02:29:36.348Z,101418.19
2022-09-12T02:32:22.201Z,101408.53
2022-09-12T02:35:13.619Z,101420.03
2022-09-12T02:38:00.005Z,101416.50
2022-09-12T02:40:33.430Z,101419.16
2022-09-12T02:43:06.433Z,101410.34
2022-09-12T02:45:38.940Z,101409.47
2022-09-12T02:48:23.467Z,101412.09
2022-09-12T02:50:56.362Z,101401.50
2022-09-12T02:53:28.908Z,101400.56
2022-09-12T02:56:01.614Z,101404.97
2022-09-12T02:58:34.524Z,101395.28
2022-09-12T03:01:19.013Z,101388.22
2022-09-12T03:04:08.735Z,101391.78
2022-09-12T03:06:41.019Z,101387.38
2022-09-12T03:09:27.511Z,101389.16
2022-09-12T03:12:23.043Z,101386.50
2022-09-12T03:15:21.793Z,101385.66
2022-09-12T03:18:01.383Z,101385.72
2022-09-12T03:20:55.045Z,101382.19
2022-09-12T03:23:43.613Z,101382.19
2022-09-12T03:26:23.210Z,101378.66
2022-09-12T03:28:56.759Z,101386.53
2022-09-12T03:31:29.296Z,101375.94
2022-09-12T03:34:02.025Z,101382.09
2022-09-12T03:36:34.403Z,101379.47
2022-09-12T03:39:06.808Z,101386.50
2022-09-12T03:41:39.615Z,101375.06
2022-09-12T03:44:12.028Z,101376.81
2022-09-12T03:46:44.756Z,101379.47
2022-09-12T03:49:17.570Z,101378.56
2022-09-12T03:51:49.935Z,101376.81
2022-09-12T03:54:22.383Z,101375.91
2022-09-12T03:56:54.758Z,101373.22
2022-09-12T03:59:27.144Z,101371.44
2022-09-12T04:01:59.841Z,101364.38
2022-09-12T04:04:32.684Z,101357.28
2022-09-12T04:07:05.099Z,101367.84
2022-09-12T04:09:37.565Z,101358.09
2022-09-12T04:12:10.188Z,101359.81
2022-09-12T04:14:42.620Z,101354.50
2022-09-12T04:17:16.152Z,101347.41
2022-09-12T04:19:48.505Z,101355.34
2022-09-12T04:22:21.011Z,101352.69
2022-09-12T04:24:53.403Z,101351.78
2022-09-12T04:27:25.816Z,101347.38
2022-09-12T04:30:00.245Z,101345.63
2022-09-12T04:32:32.786Z,101342.97
2022-09-12T04:35:05.431Z,101344.69
2022-09-12T04:37:37.846Z,101337.59
2022-09-12T04:40:10.364Z,101337.56
2022-09-12T04:42:42.745Z,101337.56
2022-09-12T04:45:16.633Z,101338.41
2022-09-12T04:47:49.028Z,101333.97
2022-09-12T04:50:21.650Z,101331.28
2022-09-12T04:52:54.690Z,101333.91
2022-09-12T04:55:27.394Z,101348.06
2022-09-12T04:58:00.959Z,101336.56
2022-09-12T05:00:33.339Z,101343.66
2022-09-12T05:03:05.755Z,101340.97
2022-09-12T05:05:38.133Z,101343.59
2022-09-12T05:08:10.494Z,101340.06
2022-09-12T05:10:42.859Z,101337.44
2022-09-12T05:13:15.239Z,101340.03
2022-09-12T05:15:57.871Z,101342.63
2022-09-12T05:18:34.821Z,101338.19
2022-09-12T05:21:09.397Z,101346.06
2022-09-12T05:23:42.417Z,101344.22
2022-09-12T05:26:15.910Z,101330.91
2022-09-12T05:28:49.641Z,101338.88
2022-09-12T05:31:27.327Z,101352.09
2022-09-12T05:33:59.689Z,101341.47
2022-09-12T05:36:32.152Z,101338.78
2022-09-12T05:39:04.767Z,101335.19
2022-09-12T05:41:37.264Z,101341.34
2022-09-12T05:44:14.161Z,101337.72
2022-09-12T05:46:50.353Z,101340.34
2022-09-12T05:49:22.791Z,101338.44
2022-09-12T05:51:55.186Z,101343.69
2022-09-12T05:54:31.326Z,101352.47
2022-09-12T05:57:04.228Z,101354.13
2022-09-12T05:59:36.811Z,101357.66
2022-09-12T06:02:10.953Z,101358.44
2022-09-12T06:04:43.568Z,101360.16
2022-09-12T06:07:15.936Z,101364.47
2022-09-12T06:09:48.289Z,101367.94
2022-09-12T06:12:20.646Z,101367.00
2022-09-12T06:14:53.830Z,101366.03
2022-09-12T06:17:26.486Z,101364.19
2022-09-12T06:19:59.010Z,101362.41
2022-09-12T06:22:31.604Z,101354.41
2022-09-12T06:25:04.968Z,101350.00
2022-09-12T06:27:37.323Z,101356.22
2022-09-12T06:30:10.220Z,101355.31
2022-09-12T06:32:43.044Z,101347.28
2022-09-12T06:35:15.432Z,101351.69
2022-09-12T06:37:48.289Z,101354.31
2022-09-12T06:40:20.748Z,101352.44
2022-09-12T06:42:53.132Z,101355.88
2022-09-12T06:45:26.085Z,101352.22
2022-09-12T06:47:58.463Z,101359.13
2022-09-12T06:50:30.999Z,101351.91
2022-09-12T06:53:03.424Z,101349.09
2022-09-12T06:55:35.880Z,101354.22
2022-09-12T06:58:08.396Z,101346.13
2022-09-12T07:00:40.761Z,101349.50
2022-09-12T07:03:13.131Z,101350.28
2022-09-12T07:05:46.310Z,101346.66
2022-09-12T07:08:18.705Z,101345.69
2022-09-12T07:10:51.160Z,101345.63
2022-09-12T07:13:23.582Z,101349.13
2022-09-12T07:15:55.980Z,101344.59
2022-09-12T07:18:29.392Z,101349.78
2022-09-12T07:21:02.778Z,101352.31
2022-09-12T07:23:35.189Z,101347.72
2022-09-12T07:26:10.271Z,101341.41
2022-09-12T07:28:43.117Z,101344.72
2022-09-12T07:31:18.245Z,101331.25
2022-09-12T07:33:54.590Z,101341.63
2022-09-12T07:36:27.749Z,101338.69
2022-09-12T07:39:00.135Z,101337.50
2022-09-12T07:41:35.915Z,101332.75
2022-09-12T07:44:08.351Z,101337.84
2022-09-12T07:46:40.757Z,101341.13
2022-09-12T07:49:13.288Z,101347.84
2022-09-12T07:51:45.822Z,101353.81
2022-09-12T07:54:18.290Z,101340.13
2022-09-12T07:56:50.701Z,101349.53
2022-09-12T07:59:48.423Z,101353.63
2022-09-12T08:02:17.443Z,101356.84
2022-09-12T08:04:51.353Z,101347.50
2022-09-12T08:07:23.955Z,101345.34
2022-09-12T08:09:56.814Z,101343.25
2022-09-12T08:12:29.860Z,101344.69
2022-09-12T08:15:02.442Z,101348.72
2022-09-12T08:17:35.059Z,101348.16
2022-09-12T08:20:10.481Z,101350.53
2022-09-12T08:22:43.350Z,101352.00
2022-09-12T08:25:15.879Z,101356.78
2022-09-12T08:27:48.321Z,101352.91
2022-09-12T08:30:20.682Z,101357.88
2022-09-12T08:32:53.140Z,101363.66
2022-09-12T08:35:25.519Z,101365.84
2022-09-12T08:37:58.130Z,101363.66
2022-09-12T08:40:30.617Z,101366.69
2022-09-12T08:43:11.944Z,101359.19
2022-09-12T08:46:00.623Z,101366.69
2022-09-12T08:48:33.534Z,101365.94
2022-09-12T08:51:10.192Z,101357.47
2022-09-12T08:53:46.163Z,101356.72
2022-09-12T08:56:18.813Z,101357.78
2022-09-12T08:58:51.197Z,101357.16
2022-09-12T09:01:44.372Z,101345.03
2022-09-12T09:04:20.475Z,101348.66
2022-09-12T09:07:01.776Z,101340.94
2022-09-12T09:10:07.663Z,101349.44
2022-09-12T09:13:06.348Z,101348.75
2022-09-12T09:16:04.034Z,101343.50
2022-09-12T09:18:37.214Z,101336.63
2022-09-12T09:21:15.780Z,101335.19
2022-09-12T09:23:53.626Z,101334.72
2022-09-12T09:26:35.936Z,101335.16
2022-09-12T09:29:18.361Z,101335.72
2022-09-12T09:31:57.822Z,101335.19
2022-09-12T09:34:34.196Z,101338.72
2022-09-12T09:37:25.709Z,101327.16
2022-09-12T09:40:24.408Z,101326.06
2022-09-12T09:43:00.272Z,101327.78
2022-09-12T09:45:32.761Z,101324.03
2022-09-12T09:48:10.995Z,101316.47
2022-09-12T09:50:45.365Z,101313.44
2022-09-12T09:53:53.268Z,101317.25
2022-09-12T09:56:33.691Z,101309.16
2022-09-12T09:59:26.395Z,101304.25
2022-09-12T10:02:03.815Z,101302.91
2022-09-12T10:04:41.816Z,101296.31
2022-09-12T10:07:19.760Z,101293.47
2022-09-12T10:10:15.287Z,101290.97
2022-09-12T10:12:47.649Z,101287.75
2022-09-12T10:15:22.800Z,101283.50
2022-09-12T10:17:56.563Z,101275.06
2022-09-12T10:20:30.977Z,101273.09
2022-09-12T10:23:19.092Z,101271.06
2022-09-12T10:25:56.439Z,101270.63
2022-09-12T10:28:35.640Z,101259.81
2022-09-12T10:31:12.388Z,101258.66
2022-09-12T10:33:53.710Z,101255.34
2022-09-12T10:36:35.076Z,101256.91
2022-09-12T10:39:18.406Z,101253.94
2022-09-12T10:41:50.791Z,101248.09
2022-09-12T10:44:31.314Z,101247.28
2022-09-12T10:47:21.409Z,101246.84
2022-09-12T10:49:54.009Z,101230.63
2022-09-12T10:52:27.273Z,101232.84
2022-09-12T10:54:59.768Z,101244.63
2022-09-12T10:57:51.065Z,101230.09
2022-09-12T11:00:27.875Z,101227.03
2022-09-12T11:03:20.703Z,101222.97
2022-09-12T11:05:59.838Z,101217.38
2022-09-12T11:08:40.235Z,101217.38
2022-09-12T11:11:26.865Z,101210.66
2022-09-12T11:14:32.720Z,101212.41
2022-09-12T11:17:25.669Z,101214.69
2022-09-12T11:20:13.300Z,101214.03
2022-09-12T11:23:00.402Z,101207.22
2022-09-12T11:25:48.062Z,101211.66
2022-09-12T11:28:53.292Z,101204.47
2022-09-12T11:31:41.637Z,101199.53
2022-09-12T11:34:23.195Z,101202.59
2022-09-12T11:37:08.563Z,101195.94
2022-09-12T11:39:46.826Z,101201.19
2022-09-12T11:42:26.402Z,101201.09
2022-09-12T11:45:13.674Z,101212.19
2022-09-12T11:47:57.731Z,101206.50
2022-09-12T11:50:31.788Z,101200.38
2022-09-12T11:53:18.998Z,101206.81
2022-09-12T11:56:01.540Z,101202.59
2022-09-12T11:58:36.508Z,101205.75
2022-09-12T12:01:20.948Z,101204.38
2022-09-12T12:03:55.443Z,101205.13
2022-09-12T12:06:32.388Z,101201.59
2022-09-12T12:09:05.349Z,101189.28
2022-09-12T12:11:43.837Z,101190.66
2022-09-12T12:14:24.895Z,101183.88
2022-09-12T12:16:57.872Z,101187.56
2022-09-12T12:19:36.094Z,101188.19
2022-09-12T12:22:16.970Z,101182.34
2022-09-12T12:25:22.931Z,101183.00
2022-09-12T12:28:01.340Z,101192.06
2022-09-12T12:30:36.413Z,101190.13
2022-09-12T12:33:09.976Z,101183.53
2022-09-12T12:35:47.874Z,101174.78
2022-09-12T12:38:29.685Z,101171.44
2022-09-12T12:41:17.369Z,101176.31
2022-09-12T12:43:57.511Z,101172.63
2022-09-12T12:46:30.236Z,101168.22
2022-09-12T12:49:22.848Z,101168.50
2022-09-12T12:51:58.904Z,101162.09
2022-09-12T12:54:52.643Z,101156.59
2022-09-12T12:57:30.561Z,101150.22
2022-09-12T13:00:25.592Z,101144.91
2022-09-12T13:03:04.254Z,101142.09
2022-09-12T13:05:42.849Z,101145.22
2022-09-12T13:08:18.188Z,101149.44
2022-09-12T13:10:51.667Z,101138.50
2022-09-12T13:13:31.874Z,101130.28
2022-09-12T13:16:04.503Z,101133.38
2022-09-12T13:18:48.303Z,101136.94
2022-09-12T13:21:22.182Z,101118.75
2022-09-12T13:24:03.326Z,101110.09
2022-09-12T13:26:42.004Z,101111.00
2022-09-12T13:29:18.643Z,101103.63
2022-09-12T13:32:03.031Z,101112.44
2022-09-12T13:34:44.646Z,101107.53
2022-09-12T13:37:30.815Z,101102.66
2022-09-12T13:40:21.860Z,101101.22
2022-09-12T13:43:11.849Z,101104.50
2022-09-12T13:45:46.913Z,101107.22
2022-09-12T13:48:25.269Z,101109.41
2022-09-12T13:51:00.492Z,101099.31
2022-09-12T13:53:43.924Z,101107.06
2022-09-12T13:56:17.788Z,101092.13
2022-09-12T13:58:59.135Z,101088.72
2022-09-12T14:01:38.638Z,101085.56
2022-09-12T14:04:43.721Z,101091.13
2022-09-12T14:07:24.620Z,101089.91
2022-09-12T14:09:59.545Z,101076.38
2022-09-12T14:12:34.813Z,101070.19
2022-09-12T14:15:19.580Z,101056.94
2022-09-12T14:17:55.125Z,101070.38
2022-09-12T14:20:33.007Z,101072.69
2022-09-12T14:23:29.101Z,101068.13
2022-09-12T14:26:05.628Z,101069.97
2022-09-12T14:28:43.095Z,101067.34
2022-09-12T14:31:15.658Z,101060.94
2022-09-12T14:33:53.528Z,101060.44
2022-09-12T14:36:31.552Z,101059.97
2022-09-12T14:39:07.937Z,101045.03
2022-09-12T14:41:41.840Z,101036.34
2022-09-12T14:44:23.340Z,101030.53
2022-09-12T14:47:00.447Z,101029.53
2022-09-12T14:49:36.500Z,101035.47
2022-09-12T14:52:29.477Z,101029.53
2022-09-12T14:55:19.255Z,101039.53
2022-09-12T14:58:13.562Z,101035.00
2022-09-12T15:00:54.370Z,101031.47
2022-09-12T15:03:37.662Z,101029.47
2022-09-12T15:06:24.548Z,101037.97
2022-09-12T15:08:59.847Z,101033.16
2022-09-12T15:11:33.686Z,101030.31
2022-09-12T15:14:15.873Z,101018.63
2022-09-12T15:16:48.232Z,101019.19
2022-09-12T15:19:20.853Z,101023.72
2022-09-12T15:21:53.284Z,101016.59
2022-09-12T15:24:25.676Z,101007.81
2022-09-12T15:26:58.404Z,101017.19
2022-09-12T15:29:30.736Z,101012.53
2022-09-12T15:32:04.055Z,101000.94
2022-09-12T15:34:36.456Z,100996.00
2022-09-12T15:37:14.038Z,101003.66
2022-09-12T15:39:46.860Z,101006.47
2022-09-12T15:42:27.244Z,101011.91
2022-09-12T15:45:02.566Z,101002.78
2022-09-12T15:47:35.294Z,101006.84
2022-09-12T15:50:07.993Z,101002.25
2022-09-12T15:52:41.270Z,101007.19
2022-09-12T15:55:19.926Z,101000.22
2022-09-12T15:57:52.262Z,101000.34
2022-09-12T16:00:25.046Z,101006.50
2022-09-12T16:02:57.627Z,100989.53
2022-09-12T16:05:30.196Z,100984.66
2022-09-12T16:08:02.768Z,100983.19
2022-09-12T16:10:35.393Z,100981.13
2022-09-12T16:13:07.805Z,100968.06
2022-09-12T16:15:40.847Z,100965.81
2022-09-12T16:18:13.817Z,100959.88
2022-09-12T16:20:46.237Z,100963.53
2022-09-12T16:23:18.608Z,100970.69
2022-09-12T16:25:57.814Z,100959.22
2022-09-12T16:28:32.532Z,100962.94
2022-09-12T16:31:06.273Z,100964.53
2022-09-12T16:33:39.349Z,100964.09
2022-09-12T16:36:14.772Z,100970.34
2022-09-12T16:38:54.332Z,100967.00
2022-09-12T16:41:26.792Z,100968.72
2022-09-12T16:43:59.329Z,100965.50
2022-09-12T16:46:31.837Z,100957.03
2022-09-12T16:49:05.915Z,100956.09
2022-09-12T16:51:38.479Z,100954.94
2022-09-12T16:54:10.927Z,100948.69
2022-09-12T16:56:43.999Z,100938.50
2022-09-12T16:59:16.757Z,100940.06
2022-09-12T17:01:49.164Z,100946.38
2022-09-12T17:04:23.672Z,100938.22
2022-09-12T17:06:59.288Z,100937.97
2022-09-12T17:09:31.654Z,100926.56
2022-09-12T17:12:04.227Z,100921.47
2022-09-12T17:14:36.616Z,100920.75
2022-09-12T17:17:09.123Z,100919.78
2022-09-12T17:19:43.315Z,100913.91
2022-09-12T17:22:15.659Z,100914.25
2022-09-12T17:24:48.037Z,100908.16
2022-09-12T17:27:20.396Z,100882.22
2022-09-12T17:29:52.840Z,100883.78
2022-09-12T17:32:25.289Z,100885.72
2022-09-12T17:34:57.855Z,100878.25
2022-09-12T17:37:30.264Z,100876.66
2022-09-12T17:40:03.947Z,100891.78
2022-09-12T17:42:36.378Z,100895.00
2022-09-12T17:45:09.309Z,100891.50
2022-09-12T17:47:42.964Z,100892.78
2022-09-12T17:50:31.371Z,100891.31
2022-09-12T17:53:06.371Z,100905.16
2022-09-12T17:55:39.398Z,100910.00
2022-09-12T17:58:12.548Z,100905.81
2022-09-12T18:01:03.654Z,100914.78
2022-09-12T18:03:36.075Z,100894.97
2022-09-12T18:06:08.541Z,100898.63
2022-09-12T18:08:41.309Z,100906.50
2022-09-12T18:11:13.685Z,100905.38
2022-09-12T18:13:46.136Z,100901.50
2022-09-12T18:16:18.588Z,100897.72
2022-09-12T18:18:51.252Z,100901.03
2022-09-12T18:21:23.649Z,100900.75
2022-09-12T18:23:58.939Z,100897.94
2022-09-12T18:26:32.540Z,100900.28
2022-09-12T18:29:04.961Z,100905.41
2022-09-12T18:31:37.411Z,100903.38
2022-09-12T18:34:14.569Z,100906.50
2022-09-12T18:36:49.208Z,100912.22
2022-09-12T18:39:25.438Z,100918.97
2022-09-12T18:42:00.025Z,100927.25
2022-09-12T18:44:32.600Z,100922.25
2022-09-12T18:47:05.221Z,100922.31
2022-09-12T18:49:37.548Z,100919.91
2022-09-12T18:52:10.259Z,100917.56
2022-09-12T18:54:42.661Z,100917.81
2022-09-12T18:57:15.012Z,100923.53
2022-09-12T18:59:47.741Z,100911.56
2022-09-12T19:02:20.080Z,100912.88
2022-09-12T19:04:52.429Z,100900.00
2022-09-12T19:07:24.822Z,100901.47
2022-09-12T19:09:57.345Z,100893.06
2022-09-12T19:12:29.701Z,100891.94
2022-09-12T19:15:02.695Z,100894.16
2022-09-12T19:17:35.669Z,100892.81
2022-09-12T19:20:08.702Z,100885.28
2022-09-12T19:22:41.057Z,100880.66
2022-09-12T19:25:13.574Z,100873.06
2022-09-12T19:27:45.900Z,100873.47
2022-09-12T19:30:18.281Z,100868.19
2022-09-12T19:32:50.660Z,100868.31
2022-09-12T19:35:23.052Z,100881.03
2022-09-12T19:37:55.502Z,100883.78
2022-09-12T19:40:27.861Z,100884.00
2022-09-12T19:43:00.212Z,100880.63
2022-09-12T19:45:32.863Z,100885.25
2022-09-12T19:48:05.199Z,100871.25
2022-09-12T19:50:37.531Z,100879.44
2022-09-12T19:53:09.885Z,100878.78
2022-09-12T19:55:42.755Z,100879.97
2022-09-12T19:58:15.535Z,100886.44
2022-09-12T20:00:47.945Z,100878.63
2022-09-12T20:03:20.340Z,100874.47
2022-09-12T20:05:52.687Z,100871.94
2022-09-12T20:08:25.037Z,100868.50
2022-09-12T20:10:57.406Z,100866.00
2022-09-12T20:13:29.961Z,100857.34
2022-09-12T20:16:19.042Z,100857.53
2022-09-12T20:18:56.747Z,100853.31
2022-09-12T20:21:32.531Z,100853.59
2022-09-12T20:24:06.640Z,100843.03
2022-09-12T20:26:40.526Z,100846.72
2022-09-12T20:29:13.138Z,100851.34
2022-09-12T20:31:46.045Z,100843.44
2022-09-12T20:34:21.200Z,100837.41
2022-09-12T20:36:53.568Z,100842.09
2022-09-12T20:39:25.940Z,100841.44
2022-09-12T20:41:58.327Z,100845.25
2022-09-12T20:44:30.709Z,100844.59
2022-09-12T20:47:03.185Z,100850.97
2022-09-12T20:49:35.571Z,100843.16
2022-09-12T20:52:07.994Z,100838.91
2022-09-12T20:54:40.392Z,100846.16
2022-09-12T20:57:12.752Z,100840.13
2022-09-12T20:59:45.186Z,100837.66
2022-09-12T21:02:17.768Z,100830.69
2022-09-12T21:04:50.772Z,100849.53
2022-09-12T21:07:23.183Z,100850.47
2022-09-12T21:09:55.876Z,100848.72
2022-09-12T21:12:28.255Z,100838.03
2022-09-12T21:15:00.592Z,100814.19
2022-09-12T21:17:32.937Z,100813.44
2022-09-12T21:20:10.628Z,100833.97
2022-09-12T21:22:43.708Z,100842.97
2022-09-12T21:25:16.228Z,100854.41
2022-09-12T21:27:48.589Z,100852.38
2022-09-12T21:30:21.080Z,100854.78
2022-09-12T21:32:53.415Z,100867.78
2022-09-12T21:35:25.928Z,100868.13
2022-09-12T21:37:58.476Z,100870.41
2022-09-12T21:40:31.092Z,100875.38
2022-09-12T21:43:04.297Z,100867.97
2022-09-12T21:45:36.659Z,100866.81
2022-09-12T21:48:09.022Z,100875.50
2022-09-12T21:50:41.366Z,100876.19
2022-09-12T21:53:13.742Z,100871.56
2022-09-12T21:55:46.097Z,100880.34
2022-09-12T21:58:18.647Z,100873.00
2022-09-12T22:00:51.151Z,100872.06
2022-09-12T22:03:23.683Z,100879.03
2022-09-12T22:06:04.695Z,100874.47
2022-09-12T22:08:38.699Z,100875.25
2022-09-12T22:11:11.695Z,100879.53
2022-09-12T22:13:44.237Z,100877.66
2022-09-12T22:16:17.703Z,100871.38
2022-09-12T22:18:50.710Z,100877.50
2022-09-12T22:21:24.322Z,100878.28
2022-09-12T22:24:15.390Z,100867.38
2022-09-12T22:26:47.773Z,100871.78
2022-09-12T22:29:21.659Z,100865.41
2022-09-12T22:31:54.177Z,100861.88
2022-09-12T22:34:27.861Z,100855.56
2022-09-12T22:37:01.177Z,100860.03
2022-09-12T22:39:33.583Z,100857.47
2022-09-12T22:42:06.372Z,100859.25
2022-09-12T22:44:38.761Z,100854.00
2022-09-12T22:47:11.429Z,100847.84
2022-09-12T22:49:43.979Z,100837.38
2022-09-12T22:52:16.450Z,100841.00
2022-09-12T22:54:49.303Z,100842.88
2022-09-12T22:57:21.643Z,100839.44
2022-09-12T22:59:54.015Z,100844.09
2022-09-12T23:02:26.373Z,100838.91
2022-09-12T23:04:59.032Z,100838.19
2022-09-12T23:07:31.603Z,100829.50
2022-09-12T23:10:04.392Z,100823.41
2022-09-12T23:12:36.825Z,100828.06
2022-09-12T23:15:10.098Z,100818.38
2022-09-12T23:17:42.600Z,100819.38
2022-09-12T23:20:14.946Z,100803.44
2022-09-12T23:22:47.367Z,100793.72
2022-09-12T23:25:21.973Z,100802.63
2022-09-12T23:27:54.310Z,100812.44
2022-09-12T23:30:26.682Z,100813.38
2022-09-12T23:32:59.032Z,100801.03
2022-09-12T23:35:31.580Z,100797.50
2022-09-12T23:38:04.063Z,100803.81
2022-09-12T23:40:36.537Z,100815.44
2022-09-12T23:43:08.921Z,100803.84
2022-09-12T23:45:41.301Z,100805.59
2022-09-12T23:48:13.831Z,100808.25
2022-09-12T23:50:47.589Z,100806.53
2022-09-12T23:53:21.243Z,100803.81
2022-09-12T23:55:53.749Z,100790.44
2022-09-12T23:58:26.128Z,100790.34
